Country
Station

 

Weather  for  Somerset Automatic Weather Observing/Reporting System  -  United States    United States

  
20 °C (68 °F)
    
 
 

Current METAR for Somerset Automatic Weather Observing/Reporting System is :

KSME 211535Z AUTO 07004KT 10SM CLR 20/14 A3005 RMK AO2

 

This is a report for Somerset Automatic Weather Observing/Reporting System - United States.
 
The report was made 14 minutes ago, at 15:35 UTC .
The wind was blowing at a speed of 2.1 meters per second (4.6 miles per hour) from east/northeast (070°).
 
The temperature was 20 °C (68 °F), with a dew-point at 14 °C (57 °F).
The atmospheric pressure was 1018 hPa (30.05 inHg).
The relative humidity was 68.4%.
 
The sky was clear.
 
The overall visibility was 16.1 kilometers (10.0 miles).
 

 
 
 
 

Country :   A   B   C   D   E   F   G   H   I   J   K   L   M   N   O   P   Q   R   S   T   U   V   W   Y   Z

 

Site Info  |  Disclaimer  |  Credits  |  Privacy
Contact us  |  Add to favorites
© 2013-2019 METARs - All rights reserved